Estación de Hornitos

Ultimos registro cada 15 minutos 57
Estación Fecha / Hora Temperatura Humedad Lluvia Velocidad Dirección Radiación Presion
57 Hornitos 03-05-2026 14:00 29,1 10 0 1,8 34 141 1010,7
56 Hornitos 03-05-2026 13:45 28,6 8 0 2,2 64 181 1010,8
55 Hornitos 03-05-2026 13:30 28,2 8 0 1,3 33 151 1011,1
54 Hornitos 03-05-2026 13:15 28,3 5 0 2,2 60 91 1011,2
53 Hornitos 03-05-2026 13:00 27,7 8 0 1,8 66 113 1011,1
52 Hornitos 03-05-2026 12:45 26,7 9 0 0,9 36 550 1011,4
51 Hornitos 03-05-2026 12:30 25,9 11 0 0,9 2 193 1011,6
50 Hornitos 03-05-2026 12:15 25 14 0 1,3 68 304 1012
49 Hornitos 03-05-2026 12:00 24,3 13 0 1,3 25 56 1012,3
48 Hornitos 03-05-2026 11:45 23,7 14 0 1,3 58 220 1012,5
47 Hornitos 03-05-2026 11:30 22,7 15 0 0,4 351 631 1012,7
46 Hornitos 03-05-2026 11:15 21,8 17 0 1,3 37 610 1012,9
45 Hornitos 03-05-2026 11:00 21,1 21 0 0,9 43 587 1013
44 Hornitos 03-05-2026 10:45 19,9 22 0 0,4 359 564 1013,3
43 Hornitos 03-05-2026 10:30 18,7 29 0 1,3 56 536 1013,5
42 Hornitos 03-05-2026 10:15 18,1 32 0 0,4 344 503 1013,6
41 Hornitos 03-05-2026 10:00 16,9 35 0 0 31 466 1013,7
40 Hornitos 03-05-2026 09:45 15,8 39 0 0,4 27 429 1013,8
39 Hornitos 03-05-2026 09:30 15,3 39 0 0,4 62 388 1014
38 Hornitos 03-05-2026 09:15 14,2 37 0 0,4 74 346 1014
37 Hornitos 03-05-2026 09:00 13,2 38 0 0,4 65 302 1014
36 Hornitos 03-05-2026 08:45 11,5 35 0 0,9 65 258 1013,5
35 Hornitos 03-05-2026 08:30 9,6 39 0 0 23 216 1013,6
34 Hornitos 03-05-2026 08:15 5,8 48 0 0 214 165 1013,5
33 Hornitos 03-05-2026 08:00 5,2 46 0 0 214 14 1013,2
32 Hornitos 03-05-2026 07:45 4,9 48 0 0,4 214 12 1013,2
31 Hornitos 03-05-2026 07:30 4,7 46 0 0 214 9 1012,9
30 Hornitos 03-05-2026 07:15 4,7 47 0 0 214 5 1012,6
29 Hornitos 03-05-2026 07:00 4,7 48 0 0 214 0 1012,4
28 Hornitos 03-05-2026 06:45 4,8 49 0 0 214 0 1012,3
27 Hornitos 03-05-2026 06:30 4,9 50 0 0 214 0 1012,3
26 Hornitos 03-05-2026 06:15 4,6 52 0 0,4 214 0 1011,9
25 Hornitos 03-05-2026 06:00 4,9 53 0 0 214 0 1011,6
24 Hornitos 03-05-2026 05:45 5,2 54 0 0 214 0 1011,8
23 Hornitos 03-05-2026 05:30 5,2 56 0 0 214 0 1011,8
22 Hornitos 03-05-2026 05:15 5,4 57 0 0 214 0 1011,5
21 Hornitos 03-05-2026 05:00 5,8 57 0 0,4 214 0 1011,5
20 Hornitos 03-05-2026 04:45 5,9 58 0 0 214 0 1011,4
19 Hornitos 03-05-2026 04:30 6,1 58 0 0 214 0 1011,5
18 Hornitos 03-05-2026 04:15 5,9 60 0 0 214 0 1011,6
17 Hornitos 03-05-2026 04:00 6,1 60 0 0 214 0 1011,6
16 Hornitos 03-05-2026 03:45 6,4 60 0 0 214 0 1011,6
15 Hornitos 03-05-2026 03:30 6,8 59 0 0 214 0 1011,8
14 Hornitos 03-05-2026 03:15 7 59 0 0 214 0 1011,9
13 Hornitos 03-05-2026 03:00 7,6 58 0 0 206 0 1011,8
12 Hornitos 03-05-2026 02:45 7,6 60 0 0 231 0 1012
11 Hornitos 03-05-2026 02:30 7,1 60 0 0 216 0 1012
10 Hornitos 03-05-2026 02:15 7,3 60 0 0,4 216 0 1012
9 Hornitos 03-05-2026 02:00 7,6 59 0 0 216 0 1011,9
8 Hornitos 03-05-2026 01:45 7,7 60 0 0 216 0 1012,1
7 Hornitos 03-05-2026 01:30 7,7 59 0 0,4 216 0 1012,1
6 Hornitos 03-05-2026 01:15 8,4 58 0 0 216 0 1012,1
5 Hornitos 03-05-2026 01:00 8,6 58 0 0 216 0 1012,2
4 Hornitos 03-05-2026 00:45 8,9 58 0 0 216 0 1012,3
3 Hornitos 03-05-2026 00:30 8,9 58 0 0 216 0 1012,2
2 Hornitos 03-05-2026 00:15 9,3 57 0 0 216 0 1012,3
1 Hornitos 03-05-2026 00:00 9,1 58 0 0 216 0 1012,2